createdAt,value
2022-12-23T00:00:59.662Z,5.66
2022-12-23T00:03:27.812Z,5.68
2022-12-23T00:05:55.674Z,5.70
2022-12-23T00:08:23.526Z,5.65
2022-12-23T00:10:52.998Z,5.61
2022-12-23T00:13:39.585Z,5.64
2022-12-23T00:16:12.116Z,5.53
2022-12-23T00:18:39.845Z,5.57
2022-12-23T00:21:10.733Z,5.61
2022-12-23T00:23:39.720Z,5.60
2022-12-23T00:26:07.608Z,5.54
2022-12-23T00:28:35.450Z,5.68
2022-12-23T00:31:04.893Z,5.78
2022-12-23T00:33:37.728Z,5.90
2022-12-23T00:36:25.251Z,5.29
2022-12-23T00:39:11.330Z,5.34
2022-12-23T00:41:57.515Z,5.30
2022-12-23T00:44:25.123Z,5.40
2022-12-23T00:46:52.872Z,5.37
2022-12-23T00:49:39.092Z,5.30
2022-12-23T00:52:09.266Z,5.40
2022-12-23T00:54:36.784Z,5.68
2022-12-23T00:57:04.385Z,5.69
2022-12-23T00:59:32.096Z,5.57
2022-12-23T01:02:18.462Z,5.57
2022-12-23T01:05:04.628Z,5.56
2022-12-23T01:07:32.647Z,5.67
2022-12-23T01:10:00.408Z,5.67
2022-12-23T01:12:28.249Z,5.69
2022-12-23T01:14:56.098Z,5.63
2022-12-23T01:17:23.912Z,5.70
2022-12-23T01:19:51.782Z,5.91
2022-12-23T01:22:19.469Z,5.69
2022-12-23T01:24:47.152Z,5.62
2022-12-23T01:27:14.826Z,5.71
2022-12-23T01:29:42.452Z,5.66
2022-12-23T01:32:10.237Z,5.58
2022-12-23T01:34:37.998Z,5.56
2022-12-23T01:37:05.890Z,5.73
2022-12-23T01:39:33.647Z,5.67
2022-12-23T01:42:20.174Z,5.68
2022-12-23T01:45:06.177Z,5.67
2022-12-23T01:47:51.847Z,5.68
2022-12-23T01:50:30.504Z,5.65
2022-12-23T01:53:08.052Z,5.62
2022-12-23T01:55:41.236Z,5.68
2022-12-23T01:58:21.431Z,5.87
2022-12-23T02:01:07.743Z,5.71
2022-12-23T02:03:44.939Z,5.71
2022-12-23T02:06:51.887Z,5.76
2022-12-23T02:09:25.278Z,5.89
2022-12-23T02:12:21.585Z,5.81
2022-12-23T02:15:46.797Z,5.91
2022-12-23T02:18:29.522Z,5.83
2022-12-23T02:21:19.230Z,5.94
2022-12-23T02:24:11.808Z,5.65
2022-12-23T02:27:26.013Z,5.77
2022-12-23T02:30:14.969Z,5.81
2022-12-23T02:33:12.239Z,5.78
2022-12-23T02:35:59.825Z,5.81
2022-12-23T02:38:57.300Z,5.85
2022-12-23T02:41:49.906Z,5.80
2022-12-23T02:44:31.320Z,5.84
2022-12-23T02:47:01.014Z,5.95
2022-12-23T02:49:36.407Z,5.83
2022-12-23T02:52:06.200Z,5.96
2022-12-23T02:54:37.242Z,5.88
2022-12-23T02:57:05.127Z,5.94
2022-12-23T02:59:39.778Z,5.96
2022-12-23T03:02:07.614Z,5.84
2022-12-23T03:04:35.419Z,5.84
2022-12-23T03:07:07.731Z,5.88
2022-12-23T03:09:58.237Z,5.88
2022-12-23T03:12:52.039Z,5.98
2022-12-23T03:15:45.772Z,5.91
2022-12-23T03:18:51.286Z,5.98
2022-12-23T03:21:37.723Z,5.79
2022-12-23T03:24:13.165Z,5.94
2022-12-23T03:26:45.269Z,5.85
2022-12-23T03:29:21.767Z,5.82
2022-12-23T03:31:49.354Z,5.86
2022-12-23T03:34:20.291Z,5.79
2022-12-23T03:36:49.754Z,5.85
2022-12-23T03:39:19.926Z,5.92
2022-12-23T03:41:55.962Z,5.90
2022-12-23T03:44:28.346Z,5.88
2022-12-23T03:47:05.280Z,5.88
2022-12-23T03:49:44.908Z,5.90
2022-12-23T03:52:20.792Z,5.95
2022-12-23T03:54:53.321Z,5.97
2022-12-23T03:57:22.245Z,5.99
2022-12-23T03:59:51.680Z,5.94
2022-12-23T04:02:45.595Z,5.92
2022-12-23T04:05:23.665Z,5.96
2022-12-23T04:08:00.536Z,5.87
2022-12-23T04:10:28.214Z,5.83
2022-12-23T04:12:57.352Z,5.88
2022-12-23T04:15:25.998Z,5.93
2022-12-23T04:17:54.019Z,5.94
2022-12-23T04:20:22.121Z,5.94
2022-12-23T04:22:49.822Z,5.91
2022-12-23T04:25:17.705Z,5.86
2022-12-23T04:27:45.379Z,5.90
2022-12-23T04:30:14.091Z,5.81
2022-12-23T04:32:42.419Z,5.87
2022-12-23T04:35:10.570Z,5.91
2022-12-23T04:37:38.520Z,5.88
2022-12-23T04:40:07.050Z,5.99
2022-12-23T04:42:34.964Z,5.99
2022-12-23T04:45:03.024Z,5.95
2022-12-23T04:47:30.908Z,5.94
2022-12-23T04:49:58.713Z,5.92
2022-12-23T04:52:26.515Z,6.07
2022-12-23T04:54:54.238Z,6.12
2022-12-23T04:57:22.026Z,6.04
2022-12-23T04:59:49.764Z,6.07
2022-12-23T05:02:19.783Z,6.00
2022-12-23T05:04:47.502Z,6.03
2022-12-23T05:07:15.577Z,6.00
2022-12-23T05:09:43.361Z,6.18
2022-12-23T05:12:11.397Z,6.17
2022-12-23T05:14:39.781Z,6.23
2022-12-23T05:17:08.183Z,6.15
2022-12-23T05:19:36.063Z,6.16
2022-12-23T05:22:03.928Z,6.25
2022-12-23T05:24:31.627Z,6.23
2022-12-23T05:27:00.426Z,6.33
2022-12-23T05:29:28.537Z,6.27
2022-12-23T05:31:56.265Z,6.17
2022-12-23T05:34:24.102Z,6.23
2022-12-23T05:36:51.835Z,6.28
2022-12-23T05:39:19.546Z,6.26
2022-12-23T05:41:47.251Z,6.39
2022-12-23T05:44:15.068Z,6.28
2022-12-23T05:46:43.017Z,6.36
2022-12-23T05:49:10.807Z,6.42
2022-12-23T05:51:38.492Z,6.36
2022-12-23T05:54:06.190Z,6.31
2022-12-23T05:56:34.293Z,6.49
2022-12-23T05:59:02.109Z,6.37
2022-12-23T06:01:30.070Z,6.42
2022-12-23T06:03:58.212Z,6.37
2022-12-23T06:06:25.948Z,6.49
2022-12-23T06:08:59.340Z,6.40
2022-12-23T06:11:28.157Z,6.48
2022-12-23T06:13:55.971Z,6.46
2022-12-23T06:16:23.773Z,6.48
2022-12-23T06:18:55.472Z,6.47
2022-12-23T06:21:23.176Z,6.46
2022-12-23T06:23:51.390Z,6.58
2022-12-23T06:26:19.172Z,6.72
2022-12-23T06:28:46.774Z,6.59
2022-12-23T06:31:14.704Z,6.67
2022-12-23T06:33:42.468Z,6.82
2022-12-23T06:36:10.292Z,6.81
2022-12-23T06:38:38.403Z,6.75
2022-12-23T06:41:06.144Z,6.86
2022-12-23T06:43:33.726Z,6.71
2022-12-23T06:46:01.345Z,6.76
2022-12-23T06:48:28.903Z,6.83
2022-12-23T06:50:56.529Z,6.89
2022-12-23T06:53:24.123Z,6.92
2022-12-23T06:56:01.392Z,6.98
2022-12-23T06:58:30.148Z,6.85
2022-12-23T07:00:57.974Z,7.08
2022-12-23T07:03:25.696Z,7.09
2022-12-23T07:05:54.449Z,7.06
2022-12-23T07:08:22.204Z,7.24
2022-12-23T07:10:49.794Z,7.38
2022-12-23T07:13:17.325Z,7.44
2022-12-23T07:15:44.949Z,7.39
2022-12-23T07:18:12.462Z,7.35
2022-12-23T07:20:40.044Z,7.47
2022-12-23T07:23:08.008Z,7.45
2022-12-23T07:25:35.961Z,7.56
2022-12-23T07:28:03.766Z,7.58
2022-12-23T07:30:32.198Z,7.50
2022-12-23T07:32:59.883Z,7.67
2022-12-23T07:35:27.365Z,7.53
2022-12-23T07:37:55.750Z,7.51
2022-12-23T07:40:23.718Z,7.52
2022-12-23T07:42:57.061Z,7.55
2022-12-23T07:45:28.515Z,7.66
2022-12-23T07:47:56.335Z,7.57
2022-12-23T07:50:24.158Z,7.53
2022-12-23T07:52:52.359Z,7.66
2022-12-23T07:55:20.134Z,7.67
2022-12-23T07:57:51.514Z,7.59
2022-12-23T08:00:19.313Z,7.63
2022-12-23T08:02:46.991Z,7.79
2022-12-23T08:05:15.353Z,7.80
2022-12-23T08:07:45.173Z,7.92
2022-12-23T08:10:13.018Z,7.98
2022-12-23T08:12:40.770Z,7.93
2022-12-23T08:15:09.465Z,8.10
2022-12-23T08:17:37.340Z,8.14
2022-12-23T08:20:05.437Z,8.04
2022-12-23T08:22:33.288Z,8.10
2022-12-23T08:25:01.186Z,8.17
2022-12-23T08:27:28.768Z,8.17
2022-12-23T08:29:56.323Z,8.36
2022-12-23T08:32:27.343Z,8.32
2022-12-23T08:34:57.409Z,8.34
2022-12-23T08:37:25.297Z,8.44
2022-12-23T08:39:52.996Z,8.44
2022-12-23T08:42:20.900Z,8.63
2022-12-23T08:44:48.533Z,8.66
2022-12-23T08:47:16.322Z,8.82
2022-12-23T08:49:44.001Z,8.50
2022-12-23T08:52:12.856Z,8.56
2022-12-23T08:54:40.611Z,8.66
2022-12-23T08:57:08.216Z,8.77
2022-12-23T08:59:35.938Z,8.84
2022-12-23T09:02:04.255Z,8.99
2022-12-23T09:04:32.310Z,9.06
2022-12-23T09:07:01.654Z,9.00
2022-12-23T09:09:29.611Z,9.27
2022-12-23T09:11:57.204Z,9.09
2022-12-23T09:14:25.331Z,9.06
2022-12-23T09:16:53.270Z,9.15
2022-12-23T09:19:20.958Z,9.18
2022-12-23T09:21:48.921Z,9.10
2022-12-23T09:24:16.569Z,8.90
2022-12-23T09:26:44.174Z,9.00
2022-12-23T09:29:11.742Z,8.81
2022-12-23T09:31:39.450Z,8.76
2022-12-23T09:34:07.343Z,8.48
2022-12-23T09:36:35.230Z,8.55
2022-12-23T09:39:02.781Z,8.44
2022-12-23T09:41:30.241Z,8.65
2022-12-23T09:44:19.616Z,8.75
2022-12-23T09:46:51.455Z,8.79
2022-12-23T09:49:19.146Z,8.69
2022-12-23T09:51:46.944Z,8.54
2022-12-23T09:54:25.203Z,8.62
2022-12-23T09:57:16.966Z,8.58
2022-12-23T10:00:07.128Z,8.70
2022-12-23T10:03:08.772Z,8.80
2022-12-23T10:05:44.911Z,8.41
2022-12-23T10:08:27.937Z,8.73
2022-12-23T10:11:00.527Z,8.70
2022-12-23T10:13:32.170Z,8.65
2022-12-23T10:16:05.201Z,8.50
2022-12-23T10:18:48.490Z,8.64
2022-12-23T10:21:35.233Z,8.47
2022-12-23T10:24:07.492Z,8.44
2022-12-23T10:26:39.737Z,8.46
2022-12-23T10:29:19.269Z,8.54
2022-12-23T10:31:56.925Z,8.55
2022-12-23T10:34:38.144Z,8.62
2022-12-23T10:37:11.998Z,8.53
2022-12-23T10:39:42.623Z,8.47
2022-12-23T10:42:19.285Z,8.48
2022-12-23T10:44:54.193Z,8.55
2022-12-23T10:47:29.188Z,8.45
2022-12-23T10:50:16.241Z,8.59
2022-12-23T10:52:45.358Z,8.61
2022-12-23T10:55:39.404Z,8.72
2022-12-23T10:58:18.449Z,8.82
2022-12-23T11:00:52.254Z,8.81
2022-12-23T11:03:36.997Z,8.85
2022-12-23T11:06:04.748Z,8.87
2022-12-23T11:08:32.396Z,9.01
2022-12-23T11:11:01.469Z,8.94
2022-12-23T11:13:32.334Z,9.09
2022-12-23T11:16:19.842Z,8.85
2022-12-23T11:19:09.673Z,8.84
2022-12-23T11:21:37.268Z,8.96
2022-12-23T11:24:25.379Z,8.94
2022-12-23T11:27:00.977Z,8.92
2022-12-23T11:29:39.003Z,8.86
2022-12-23T11:32:35.528Z,8.86
2022-12-23T11:35:04.149Z,8.73
2022-12-23T11:37:41.110Z,8.87
2022-12-23T11:40:21.585Z,8.69
2022-12-23T11:42:53.541Z,8.78
2022-12-23T11:45:24.940Z,8.76
2022-12-23T11:47:52.634Z,8.78
2022-12-23T11:50:36.966Z,8.83
2022-12-23T11:53:14.688Z,8.85
2022-12-23T11:56:00.337Z,8.91
2022-12-23T11:58:28.965Z,8.74
2022-12-23T12:01:00.784Z,8.81
2022-12-23T12:03:32.671Z,8.81
2022-12-23T12:06:04.215Z,8.91
2022-12-23T12:08:36.743Z,8.69
2022-12-23T12:11:17.001Z,8.76
2022-12-23T12:13:48.732Z,8.64
2022-12-23T12:16:31.684Z,8.76
2022-12-23T12:19:05.671Z,8.61
2022-12-23T12:21:36.972Z,8.80
2022-12-23T12:24:25.677Z,8.62
2022-12-23T12:26:54.852Z,8.70
2022-12-23T12:29:45.829Z,8.74
2022-12-23T12:33:05.857Z,8.70
2022-12-23T12:35:53.996Z,8.84
2022-12-23T12:38:26.212Z,8.60
2022-12-23T12:41:00.467Z,8.61
2022-12-23T12:43:31.799Z,8.58
2022-12-23T12:46:20.025Z,8.60
2022-12-23T12:48:59.919Z,8.47
2022-12-23T12:51:42.790Z,8.57
2022-12-23T12:54:22.986Z,8.39
2022-12-23T12:56:58.181Z,8.45
2022-12-23T12:59:28.539Z,8.53
2022-12-23T13:02:10.833Z,8.52
2022-12-23T13:04:48.066Z,8.36
2022-12-23T13:07:24.498Z,8.36
2022-12-23T13:10:00.272Z,8.36
2022-12-23T13:12:44.829Z,8.32
2022-12-23T13:15:24.331Z,8.30
2022-12-23T13:18:01.921Z,8.25
2022-12-23T13:20:41.110Z,8.20
2022-12-23T13:23:41.629Z,8.21
2022-12-23T13:26:18.898Z,8.19
2022-12-23T13:28:48.954Z,8.07
